Time;durP1;ratioP1;P1;durP2;ratioP2;P2;SDS_P1;SDS_P2;PMS_P1;PMS_P2;Temp;Humidity;BMP_temperature;BMP_pressure;BME280_temperature;BME280_humidity;BME280_pressure;Samples;Min_cycle;Max_cycle;Signal;HPM_P1;HPM_P2
2023/01/29 00:01:54;;;;;;;0.10;0.10;;;5.50;99.90;;;;;;4973590;28;20054;-67
2023/01/29 00:04:23;;;;;;;0.20;0.20;;;5.50;99.90;;;;;;4992150;28;20085;-67
2023/01/29 00:06:48;;;;;;;0.63;0.63;;;5.60;99.90;;;;;;4990483;28;20128;-68
2023/01/29 00:09:14;;;;;;;0.38;0.38;;;5.60;99.90;;;;;;4991080;28;20165;-68
2023/01/29 00:11:40;;;;;;;2.38;1.13;;;5.60;99.90;;;;;;4972230;28;20069;-68
2023/01/29 00:14:12;;;;;;;0.10;0.10;;;5.60;99.90;;;;;;4990529;28;20046;-67
2023/01/29 00:16:38;;;;;;;0.35;0.35;;;5.50;99.90;;;;;;4991835;28;20135;-67
2023/01/29 00:19:04;;;;;;;0.30;0.30;;;5.60;99.90;;;;;;4989468;28;20496;-67
2023/01/29 00:21:31;;;;;;;0.10;0.10;;;5.60;99.90;;;;;;4991335;28;20042;-68
2023/01/29 00:23:57;;;;;;;0.50;0.50;;;5.50;99.90;;;;;;4989567;28;20042;-68
2023/01/29 00:26:26;;;;;;;0.10;0.10;;;5.60;99.90;;;;;;4989601;28;20572;-68
2023/01/29 00:29:00;;;;;;;0.20;0.20;;;5.60;99.90;;;;;;4991805;28;20038;-67
2023/01/29 00:31:26;;;;;;;0.20;0.20;;;5.50;99.90;;;;;;4989406;28;20050;-68
2023/01/29 00:33:55;;;;;;;0.10;0.10;;;5.50;99.90;;;;;;4990453;28;20589;-68
2023/01/29 00:36:23;;;;;;;0.10;0.10;;;5.60;99.90;;;;;;4990544;28;20034;-68
2023/01/29 00:39:09;;;;;;;1.65;0.85;;;5.60;99.90;;;;;;4989888;28;20050;-67
2023/01/29 00:47:34;;;;;;;0.10;0.10;;;5.60;99.90;;;;;;4988954;28;20050;-67
2023/01/29 00:50:12;;;;;;;1.08;1.08;;;5.60;99.90;;;;;;4990645;28;20487;-68
2023/01/29 00:52:44;;;;;;;0.10;0.10;;;5.60;99.90;;;;;;4987872;28;20430;-67
2023/01/29 00:55:19;;;;;;;0.10;0.10;;;5.60;99.90;;;;;;4985254;28;20054;-67
2023/01/29 00:57:45;;;;;;;0.52;0.52;;;5.60;99.90;;;;;;4989066;28;20145;-68
2023/01/29 01:00:14;;;;;;;1.38;1.35;;;5.60;99.90;;;;;;4990510;28;20074;-68
2023/01/29 01:05:32;;;;;;;0.10;0.10;;;5.60;99.90;;;;;;4990231;28;20050;-67
2023/01/29 01:10:19;;;;;;;0.10;0.10;;;5.60;99.90;;;;;;4989748;28;20462;-68
2023/01/29 01:11:02;;;;;;;0.10;0.10;;;5.60;99.90;;;;;;4977846;28;20043;-67
2023/01/29 01:13:30;;;;;;;0.20;0.20;;;5.60;99.90;;;;;;4989931;28;20054;-67
2023/01/29 01:15:56;;;;;;;0.55;0.55;;;5.60;99.90;;;;;;4991424;28;20031;-68
2023/01/29 01:18:29;;;;;;;0.10;0.10;;;5.60;99.90;;;;;;4989115;28;20489;-68
2023/01/29 01:20:57;;;;;;;0.98;0.90;;;5.60;99.90;;;;;;4988450;28;20038;-67
2023/01/29 01:23:26;;;;;;;0.10;0.10;;;5.60;99.90;;;;;;4971657;28;20050;-67
2023/01/29 01:25:55;;;;;;;0.10;0.10;;;5.70;99.90;;;;;;4972621;28;20639;-67
2023/01/29 01:28:24;;;;;;;0.10;0.10;;;5.70;99.90;;;;;;4989518;28;20095;-68
2023/01/29 01:30:56;;;;;;;0.40;0.40;;;5.60;99.90;;;;;;4987347;28;20038;-67
2023/01/29 01:33:22;;;;;;;2.28;0.90;;;5.60;99.90;;;;;;4987795;28;20104;-68
2023/01/29 01:35:47;;;;;;;1.00;0.95;;;5.60;99.90;;;;;;4971292;28;20042;-68
2023/01/29 01:38:16;;;;;;;0.10;0.10;;;5.60;99.90;;;;;;4989865;28;20046;-68
2023/01/29 01:40:44;;;;;;;0.20;0.20;;;5.60;99.90;;;;;;4988049;28;20039;-68
2023/01/29 01:43:10;;;;;;;0.10;0.10;;;5.60;99.90;;;;;;4986256;28;20047;-68
2023/01/29 01:45:36;;;;;;;1.02;1.02;;;5.60;99.90;;;;;;4986920;28;20414;-67
2023/01/29 01:48:22;;;;;;;0.10;0.10;;;5.60;99.90;;;;;;4990068;28;20050;-68
2023/01/29 01:50:52;;;;;;;1.02;0.77;;;5.60;99.90;;;;;;4971353;28;20490;-68
2023/01/29 01:53:27;;;;;;;0.90;0.90;;;5.70;99.90;;;;;;4989305;28;20085;-67
2023/01/29 01:56:03;;;;;;;0.10;0.10;;;5.70;99.90;;;;;;4988636;28;20034;-68
2023/01/29 01:58:43;;;;;;;0.10;0.10;;;5.70;99.90;;;;;;4990102;28;20070;-67
2023/01/29 02:01:12;;;;;;;0.15;0.15;;;5.70;99.90;;;;;;4986549;28;20074;-67
2023/01/29 02:09:35;;;;;;;0.10;0.10;;;5.60;99.90;;;;;;4969818;28;20058;-67
2023/01/29 02:12:13;;;;;;;0.10;0.10;;;5.60;99.90;;;;;;4988023;28;20045;-68
2023/01/29 02:14:40;;;;;;;0.80;0.80;;;5.60;99.90;;;;;;4982017;28;20474;-67
2023/01/29 02:17:15;;;;;;;0.40;0.40;;;5.60;99.90;;;;;;4988474;28;20413;-67
2023/01/29 02:19:49;;;;;;;0.57;0.57;;;5.60;99.90;;;;;;4986882;28;20141;-68
2023/01/29 02:22:28;;;;;;;0.10;0.10;;;5.60;99.90;;;;;;4988618;28;20054;-67
2023/01/29 02:25:08;;;;;;;0.30;0.30;;;5.60;99.90;;;;;;4987109;28;20528;-67
2023/01/29 02:27:40;;;;;;;0.52;0.52;;;5.60;99.90;;;;;;4970816;28;20054;-67
2023/01/29 02:30:29;;;;;;;0.30;0.30;;;5.60;99.90;;;;;;4994245;28;20073;-67
2023/01/29 02:33:09;;;;;;;0.55;0.55;;;5.60;99.90;;;;;;4970193;28;20076;-67
2023/01/29 02:36:00;;;;;;;1.00;0.95;;;5.60;99.90;;;;;;4983045;28;20046;-67
2023/01/29 02:38:39;;;;;;;0.13;0.13;;;5.60;99.90;;;;;;4976974;28;20137;-67
2023/01/29 02:41:09;;;;;;;0.25;0.25;;;5.50;99.90;;;;;;4986905;28;20076;-68
2023/01/29 02:43:44;;;;;;;0.60;0.52;;;5.60;99.90;;;;;;4987138;28;20082;-67
2023/01/29 02:46:20;;;;;;;0.15;0.15;;;5.50;99.90;;;;;;4986376;28;20068;-67
2023/01/29 02:49:05;;;;;;;1.92;1.75;;;5.50;99.90;;;;;;4996598;28;20121;-67
2023/01/29 02:51:49;;;;;;;0.10;0.10;;;5.60;99.90;;;;;;4979999;28;20073;-67
2023/01/29 02:54:44;;;;;;;0.17;0.17;;;5.50;99.90;;;;;;4987226;28;20390;-67
2023/01/29 02:57:35;;;;;;;0.43;0.43;;;5.50;99.90;;;;;;4978059;28;20058;-67
2023/01/29 03:00:11;;;;;;;0.10;0.10;;;5.50;99.90;;;;;;4986606;28;20525;-67
2023/01/29 03:02:47;;;;;;;0.10;0.10;;;5.50;99.90;;;;;;4970561;28;20145;-67
2023/01/29 03:05:24;;;;;;;0.93;0.93;;;5.50;99.90;;;;;;4986082;28;20082;-67
2023/01/29 03:08:01;;;;;;;0.10;0.10;;;5.50;99.90;;;;;;4969984;28;20062;-68
2023/01/29 03:10:54;;;;;;;0.85;0.85;;;5.50;99.90;;;;;;4987299;28;20470;-67
2023/01/29 03:13:32;;;;;;;0.20;0.20;;;5.50;99.90;;;;;;4978829;28;20269;-67
2023/01/29 03:16:06;;;;;;;0.10;0.10;;;5.50;99.90;;;;;;4986293;28;20074;-67
2023/01/29 03:18:40;;;;;;;;;;;5.50;99.90;;;;;;4987073;28;20047;-67
2023/01/29 03:32:42;;;;;;;0.05;0.05;;;5.40;99.90;;;;;;4988057;28;20054;-67
2023/01/29 03:35:11;;;;;;;0.17;0.17;;;5.40;99.90;;;;;;4985518;28;20073;-67
2023/01/29 03:37:46;;;;;;;3.63;1.70;;;5.40;99.90;;;;;;4986571;28;20049;-67
2023/01/29 03:40:15;;;;;;;0.15;0.15;;;5.40;99.90;;;;;;4986337;28;20050;-68
2023/01/29 03:43:02;;;;;;;0.40;0.40;;;5.40;99.90;;;;;;4985163;28;20043;-67
2023/01/29 03:45:41;;;;;;;0.45;0.45;;;5.40;99.90;;;;;;4976131;28;20035;-68
2023/01/29 03:48:25;;;;;;;1.98;0.90;;;5.40;99.90;;;;;;4983241;28;20318;-68
2023/01/29 03:51:41;;;;;;;0.20;0.20;;;5.40;99.90;;;;;;4987023;28;20067;-67
2023/01/29 03:54:13;;;;;;;0.63;0.63;;;5.50;99.90;;;;;;4952507;28;20129;-68
2023/01/29 03:57:05;;;;;;;0.68;0.45;;;5.40;99.90;;;;;;4985834;28;20417;-67
2023/01/29 03:59:54;;;;;;;0.17;0.17;;;5.40;99.90;;;;;;4988287;28;20056;-67
2023/01/29 04:02:29;;;;;;;0.13;0.13;;;5.40;99.90;;;;;;4987622;28;20044;-67
2023/01/29 04:05:12;;;;;;;0.10;0.10;;;5.40;99.90;;;;;;4985995;28;20109;-68
2023/01/29 04:07:43;;;;;;;0.90;0.75;;;5.50;99.90;;;;;;4984429;28;20117;-67
2023/01/29 04:10:21;;;;;;;0.38;0.38;;;5.40;99.90;;;;;;4987400;28;20525;-68
2023/01/29 04:12:57;;;;;;;0.40;0.40;;;5.50;99.90;;;;;;4987019;28;20125;-67
2023/01/29 04:15:29;;;;;;;0.20;0.20;;;5.50;99.90;;;;;;4985859;28;20406;-67
2023/01/29 04:17:56;;;;;;;0.73;0.35;;;5.50;99.90;;;;;;4969516;28;20148;-66
2023/01/29 04:20:22;;;;;;;0.32;0.32;;;5.50;99.90;;;;;;4986969;28;20490;-66
2023/01/29 04:22:50;;;;;;;0.10;0.10;;;5.50;99.90;;;;;;4986885;28;20038;-66
2023/01/29 04:25:34;;;;;;;0.17;0.17;;;5.50;99.90;;;;;;4985663;28;20615;-65
2023/01/29 04:28:33;;;;;;;0.20;0.20;;;5.50;99.90;;;;;;4986247;28;20038;-66
2023/01/29 04:31:07;;;;;;;0.10;0.10;;;5.50;99.90;;;;;;4986709;28;20054;-66
2023/01/29 04:33:42;;;;;;;0.10;0.10;;;5.50;99.90;;;;;;4991005;28;20040;-66
2023/01/29 04:36:10;;;;;;;0.55;0.55;;;5.50;99.90;;;;;;4989385;28;20092;-66
2023/01/29 04:38:54;;;;;;;0.10;0.10;;;5.60;99.90;;;;;;4989167;28;20617;-66
2023/01/29 04:41:30;;;;;;;;;;;5.50;99.90;;;;;;4990188;28;20038;-66
2023/01/29 04:44:19;;;;;;;0.10;0.10;;;5.60;99.90;;;;;;4988782;28;19933;-66
2023/01/29 04:46:55;;;;;;;0.13;0.13;;;5.50;99.90;;;;;;4987705;28;20058;-66
2023/01/29 04:49:34;;;;;;;0.47;0.47;;;5.60;99.90;;;;;;4988871;28;20776;-66
2023/01/29 04:52:23;;;;;;;0.10;0.10;;;5.50;99.90;;;;;;4990036;28;20145;-66
2023/01/29 04:55:03;;;;;;;0.10;0.10;;;5.60;99.90;;;;;;4990193;28;20058;-66
2023/01/29 04:57:51;;;;;;;0.70;0.70;;;5.60;99.90;;;;;;4988489;28;20038;-66
2023/01/29 05:00:39;;;;;;;1.25;0.95;;;5.60;99.90;;;;;;4990456;28;20077;-65
2023/01/29 05:03:11;;;;;;;0.73;0.73;;;5.60;99.90;;;;;;4969852;28;20038;-66
2023/01/29 05:05:40;;;;;;;0.10;0.10;;;5.60;99.90;;;;;;4986764;28;20058;-65
2023/01/29 05:08:13;;;;;;;0.35;0.35;;;5.60;99.90;;;;;;4988303;28;20043;-66
2023/01/29 05:10:39;;;;;;;0.28;0.28;;;5.60;99.90;;;;;;4990326;28;20446;-66
2023/01/29 05:13:10;;;;;;;0.43;0.43;;;5.60;99.90;;;;;;4990290;28;20046;-66
2023/01/29 05:16:02;;;;;;;1.33;0.68;;;5.60;99.90;;;;;;4988242;28;20038;-65
2023/01/29 05:18:29;;;;;;;1.02;1.02;;;5.60;99.90;;;;;;4981006;28;20139;-66
2023/01/29 05:20:56;;;;;;;0.55;0.55;;;5.60;99.90;;;;;;4988938;28;20081;-66
2023/01/29 05:23:22;;;;;;;0.35;0.35;;;5.60;99.90;;;;;;4989469;28;20050;-66
2023/01/29 05:25:50;;;;;;;0.10;0.10;;;5.60;99.90;;;;;;4987700;28;20105;-66
2023/01/29 05:28:16;;;;;;;0.35;0.35;;;5.60;99.90;;;;;;4989707;28;20073;-66
2023/01/29 05:30:55;;;;;;;0.10;0.10;;;5.60;99.90;;;;;;4989658;28;20073;-66
2023/01/29 05:33:25;;;;;;;0.70;0.70;;;5.60;99.90;;;;;;4988786;28;20046;-66
2023/01/29 05:35:51;;;;;;;0.30;0.30;;;5.50;99.90;;;;;;4985985;28;20054;-66
2023/01/29 05:38:18;;;;;;;0.30;0.30;;;5.50;99.90;;;;;;4978990;28;20038;-66
2023/01/29 05:40:44;;;;;;;0.80;0.80;;;5.50;99.90;;;;;;4988753;28;20084;-66
2023/01/29 05:43:22;;;;;;;2.05;1.23;;;5.50;99.90;;;;;;4975279;28;20473;-66
2023/01/29 05:45:55;;;;;;;0.10;0.10;;;5.50;99.90;;;;;;4982782;28;20125;-66
2023/01/29 05:48:28;;;;;;;0.40;0.40;;;5.40;99.90;;;;;;4976244;28;20053;-66
2023/01/29 05:51:02;;;;;;;0.10;0.10;;;5.40;99.90;;;;;;4988697;28;20096;-66
2023/01/29 05:53:28;;;;;;;0.57;0.57;;;5.40;99.90;;;;;;4968966;28;20321;-66
2023/01/29 05:56:01;;;;;;;0.10;0.10;;;5.40;99.90;;;;;;4984931;28;20065;-66
2023/01/29 05:58:26;;;;;;;1.58;1.48;;;5.30;99.90;;;;;;4989622;28;20061;-66
2023/01/29 06:00:52;;;;;;;0.17;0.17;;;5.30;99.90;;;;;;4989045;28;20034;-66
2023/01/29 06:03:18;;;;;;;0.32;0.32;;;5.20;99.90;;;;;;4989921;28;20177;-66
2023/01/29 06:05:43;;;;;;;0.55;0.55;;;5.20;99.90;;;;;;4988243;28;20424;-67
2023/01/29 06:08:09;;;;;;;1.85;0.65;;;5.20;99.90;;;;;;4988090;28;20041;-66
2023/01/29 06:10:35;;;;;;;0.45;0.45;;;5.20;99.90;;;;;;4987592;28;20050;-65
2023/01/29 06:13:01;;;;;;;0.10;0.10;;;5.20;99.90;;;;;;4971971;28;20494;-65
2023/01/29 06:15:26;;;;;;;2.83;2.13;;;5.20;99.90;;;;;;4970890;28;20078;-65
2023/01/29 06:17:53;;;;;;;0.60;0.60;;;5.10;99.90;;;;;;4988776;28;20038;-65
2023/01/29 06:20:19;;;;;;;0.50;0.50;;;5.10;99.90;;;;;;4987146;28;20046;-66
2023/01/29 06:22:45;;;;;;;0.35;0.35;;;5.20;99.90;;;;;;4988604;28;20434;-65
2023/01/29 06:25:11;;;;;;;0.28;0.28;;;5.10;99.90;;;;;;4988240;28;20081;-66
2023/01/29 06:27:36;;;;;;;1.10;1.10;;;5.10;99.90;;;;;;4988170;28;20058;-65
2023/01/29 06:30:04;;;;;;;0.28;0.28;;;5.10;99.90;;;;;;4987809;28;20046;-65
2023/01/29 06:32:29;;;;;;;0.70;0.70;;;5.10;99.90;;;;;;4988190;28;20046;-65
2023/01/29 06:34:58;;;;;;;0.10;0.10;;;5.10;99.90;;;;;;4989176;28;20045;-66
2023/01/29 06:37:24;;;;;;;1.95;1.35;;;5.10;99.90;;;;;;4986857;28;20490;-65
2023/01/29 06:39:49;;;;;;;0.85;0.85;;;5.10;99.90;;;;;;4972035;28;20043;-66
2023/01/29 06:42:15;;;;;;;0.93;0.93;;;5.00;99.90;;;;;;4971309;28;20053;-65
2023/01/29 06:44:41;;;;;;;10.05;1.95;;;5.10;99.90;;;;;;4988383;28;20393;-65
2023/01/29 06:47:06;;;;;;;5.30;1.67;;;5.10;99.90;;;;;;4982072;28;20426;-66
2023/01/29 06:49:32;;;;;;;0.77;0.77;;;5.10;99.90;;;;;;4988936;28;20054;-68
2023/01/29 06:51:58;;;;;;;1.77;1.65;;;5.00;99.90;;;;;;4987828;28;20050;-66
2023/01/29 06:54:24;;;;;;;0.20;0.20;;;5.10;99.90;;;;;;4988040;28;20170;-65
2023/01/29 06:56:50;;;;;;;0.43;0.43;;;5.10;99.90;;;;;;4986789;28;20076;-68
2023/01/29 06:59:16;;;;;;;0.30;0.30;;;5.10;99.90;;;;;;4969271;28;20045;-68
2023/01/29 07:01:43;;;;;;;3.20;1.20;;;5.10;99.90;;;;;;4987321;28;20049;-68
2023/01/29 07:04:11;;;;;;;0.28;0.28;;;5.00;99.90;;;;;;4987317;28;20718;-68
2023/01/29 07:06:39;;;;;;;0.47;0.30;;;5.00;99.90;;;;;;4970655;28;20046;-68
2023/01/29 07:09:11;;;;;;;0.25;0.25;;;5.10;99.90;;;;;;4988361;28;20062;-68
2023/01/29 07:11:40;;;;;;;0.82;0.68;;;5.00;99.90;;;;;;4968540;28;20409;-68
2023/01/29 07:14:06;;;;;;;1.98;1.88;;;5.00;99.90;;;;;;4986523;28;20049;-68
2023/01/29 07:16:32;;;;;;;0.20;0.20;;;5.00;99.90;;;;;;4981597;28;20129;-68
2023/01/29 07:18:57;;;;;;;0.30;0.30;;;5.00;99.90;;;;;;4987293;28;20041;-68
2023/01/29 07:21:24;;;;;;;0.10;0.10;;;5.00;99.90;;;;;;4987362;28;20536;-66
2023/01/29 07:23:50;;;;;;;1.35;0.47;;;5.00;99.90;;;;;;4988021;28;20104;-66
2023/01/29 07:26:15;;;;;;;0.32;0.32;;;5.00;99.90;;;;;;4967522;28;20133;-65
2023/01/29 07:28:41;;;;;;;0.30;0.30;;;5.00;99.90;;;;;;4967806;28;20406;-65
2023/01/29 07:31:13;;;;;;;0.98;0.98;;;5.00;99.90;;;;;;4987331;28;21019;-65
2023/01/29 07:33:42;;;;;;;1.48;0.88;;;5.00;99.90;;;;;;4987327;28;20046;-65
2023/01/29 07:36:08;;;;;;;0.52;0.52;;;5.00;99.90;;;;;;4984742;28;20056;-65
2023/01/29 07:38:34;;;;;;;1.35;1.25;;;5.00;99.90;;;;;;4988759;28;20129;-65
2023/01/29 07:41:00;;;;;;;1.50;1.20;;;5.00;99.90;;;;;;4957785;28;20138;-65
2023/01/29 07:43:29;;;;;;;0.40;0.40;;;5.00;99.90;;;;;;4987842;28;20081;-66
2023/01/29 07:45:54;;;;;;;1.17;1.15;;;5.00;99.90;;;;;;4985722;28;20052;-66
2023/01/29 07:48:20;;;;;;;0.10;0.10;;;5.00;99.90;;;;;;4978185;28;20050;-66
2023/01/29 07:50:54;;;;;;;2.85;1.65;;;5.00;99.90;;;;;;4986214;28;20104;-65
2023/01/29 07:53:20;;;;;;;7.65;2.97;;;5.00;99.90;;;;;;4986595;28;20042;-65
2023/01/29 07:55:46;;;;;;;0.63;0.63;;;5.00;99.90;;;;;;4986027;28;20050;-66
2023/01/29 07:58:12;;;;;;;5.25;2.58;;;5.00;99.90;;;;;;4987152;28;20046;-65
2023/01/29 08:00:38;;;;;;;0.75;0.75;;;5.00;99.90;;;;;;4988361;28;20046;-66
2023/01/29 08:03:06;;;;;;;0.20;0.20;;;5.00;99.90;;;;;;4988885;28;20042;-66
2023/01/29 08:05:32;;;;;;;1.33;1.25;;;5.00;99.90;;;;;;4987931;28;20417;-65
2023/01/29 08:07:58;;;;;;;1.10;1.10;;;5.00;99.90;;;;;;4972623;28;20102;-66
2023/01/29 08:10:24;;;;;;;0.55;0.55;;;5.10;99.90;;;;;;4975002;28;20080;-65
2023/01/29 08:12:58;;;;;;;0.10;0.10;;;5.10;99.90;;;;;;4992457;28;20050;-66
2023/01/29 08:15:25;;;;;;;0.88;0.88;;;5.10;99.90;;;;;;4990456;28;20053;-65
2023/01/29 08:17:53;;;;;;;0.45;0.45;;;5.10;99.90;;;;;;4990351;28;20043;-65
2023/01/29 08:20:20;;;;;;;0.52;0.45;;;5.10;99.90;;;;;;4974665;28;20097;-66
2023/01/29 08:22:46;;;;;;;3.80;0.90;;;5.20;99.90;;;;;;4989282;28;20253;-66
2023/01/29 08:25:12;;;;;;;1.20;1.10;;;5.20;99.90;;;;;;4991341;28;20621;-65
2023/01/29 08:27:38;;;;;;;1.92;1.80;;;5.10;99.90;;;;;;4972991;28;20061;-66
2023/01/29 08:30:04;;;;;;;0.85;0.65;;;5.10;99.90;;;;;;4990370;28;20074;-65
2023/01/29 08:32:30;;;;;;;0.98;0.88;;;5.10;99.90;;;;;;4990078;28;20047;-66
2023/01/29 08:35:02;;;;;;;1.08;1.08;;;5.20;99.90;;;;;;4988120;28;20043;-66
2023/01/29 08:37:30;;;;;;;0.40;0.40;;;5.20;99.90;;;;;;4989504;28;20509;-65
2023/01/29 08:39:55;;;;;;;2.63;0.80;;;5.20;99.90;;;;;;4991435;28;20034;-66
2023/01/29 08:42:21;;;;;;;1.38;1.02;;;5.20;99.90;;;;;;4990759;28;20396;-66
2023/01/29 08:44:47;;;;;;;0.15;0.15;;;5.20;99.90;;;;;;4988933;28;20082;-65
2023/01/29 08:47:13;;;;;;;1.08;0.73;;;5.20;99.90;;;;;;4992046;28;20050;-66
2023/01/29 08:49:38;;;;;;;6.22;2.17;;;5.20;99.90;;;;;;4989384;28;20133;-66
2023/01/29 08:52:04;;;;;;;2.28;2.00;;;5.20;99.90;;;;;;4985030;28;20490;-66
2023/01/29 08:54:30;;;;;;;0.63;0.63;;;5.20;99.90;;;;;;4990864;28;20034;-67
2023/01/29 08:56:56;;;;;;;1.27;1.17;;;5.20;99.90;;;;;;4988204;28;20030;-66
2023/01/29 08:59:21;;;;;;;1.02;1.02;;;5.20;99.90;;;;;;4991480;28;20780;-65
2023/01/29 09:01:47;;;;;;;1.95;1.85;;;5.20;99.90;;;;;;4991133;28;20108;-66
2023/01/29 09:04:13;;;;;;;1.15;1.15;;;5.20;99.90;;;;;;4988855;28;20050;-67
2023/01/29 09:06:38;;;;;;;2.17;1.27;;;5.20;99.90;;;;;;4972591;28;20041;-67
2023/01/29 09:09:04;;;;;;;3.65;1.38;;;5.30;99.90;;;;;;4991014;28;20049;-67
2023/01/29 09:11:30;;;;;;;1.35;0.90;;;5.30;99.90;;;;;;4989370;28;20394;-68
2023/01/29 09:13:56;;;;;;;0.10;0.10;;;5.30;99.90;;;;;;4989225;28;20065;-67
2023/01/29 09:16:21;;;;;;;0.77;0.77;;;5.30;99.90;;;;;;4990444;28;20144;-68
2023/01/29 09:18:47;;;;;;;7.00;2.20;;;5.30;99.90;;;;;;4989776;28;20046;-68
2023/01/29 09:21:16;;;;;;;2.90;1.05;;;5.30;99.90;;;;;;4989596;28;20383;-67
2023/01/29 09:23:42;;;;;;;0.88;0.88;;;5.30;99.90;;;;;;4988025;28;20042;-69
2023/01/29 09:26:07;;;;;;;0.35;0.35;;;5.30;99.90;;;;;;4989535;28;20486;-68
2023/01/29 09:28:33;;;;;;;2.40;2.17;;;5.40;99.90;;;;;;4991296;28;20540;-68
2023/01/29 09:31:02;;;;;;;0.85;0.85;;;5.40;99.90;;;;;;4971956;28;20085;-68
2023/01/29 09:33:29;;;;;;;0.20;0.20;;;5.40;99.90;;;;;;4985922;28;20089;-67
2023/01/29 09:35:55;;;;;;;0.10;0.10;;;5.40;99.90;;;;;;4986640;28;20054;-68
2023/01/29 09:38:21;;;;;;;1.50;1.40;;;5.40;99.90;;;;;;4986402;28;20061;-67
2023/01/29 09:41:10;;;;;;;1.13;1.13;;;5.40;99.90;;;;;;4990172;28;20053;-68
2023/01/29 09:43:48;;;;;;;0.77;0.77;;;5.40;99.90;;;;;;4981208;28;20042;-68
2023/01/29 09:46:29;;;;;;;0.30;0.30;;;5.50;99.90;;;;;;4988302;28;20098;-68
2023/01/29 09:49:05;;;;;;;0.32;0.32;;;5.40;99.90;;;;;;4989345;28;20050;-68
2023/01/29 09:51:38;;;;;;;1.08;1.00;;;5.40;99.90;;;;;;4990549;28;20086;-68
2023/01/29 09:54:23;;;;;;;0.50;0.50;;;5.40;99.90;;;;;;4989527;28;20112;-68
2023/01/29 09:56:54;;;;;;;1.02;0.93;;;5.40;99.90;;;;;;4990385;28;20061;-68
2023/01/29 09:59:22;;;;;;;1.10;1.10;;;5.40;99.90;;;;;;4987668;28;20065;-67
2023/01/29 10:02:10;;;;;;;5.03;1.80;;;5.50;99.90;;;;;;4985026;28;20030;-68
2023/01/29 10:04:57;;;;;;;5.78;1.67;;;5.50;99.90;;;;;;4984462;28;20065;-68
2023/01/29 10:07:55;;;;;;;2.05;1.95;;;5.50;99.90;;;;;;4990660;28;20811;-68
2023/01/29 10:10:43;;;;;;;1.27;1.02;;;5.50;99.90;;;;;;4988268;28;20082;-67
2023/01/29 10:13:31;;;;;;;0.40;0.40;;;5.50;99.90;;;;;;4970939;28;20066;-68
2023/01/29 10:16:08;;;;;;;0.70;0.70;;;5.50;99.90;;;;;;4968712;28;20046;-68
2023/01/29 10:19:08;;;;;;;0.28;0.28;;;5.50;99.90;;;;;;4984544;28;20121;-67
2023/01/29 10:22:05;;;;;;;0.60;0.60;;;5.60;99.90;;;;;;4988963;28;20506;-67
2023/01/29 10:24:38;;;;;;;0.65;0.65;;;5.60;99.90;;;;;;4983788;28;20109;-67
2023/01/29 10:27:15;;;;;;;0.10;0.10;;;5.60;99.90;;;;;;4984670;28;20096;-67
2023/01/29 10:29:43;;;;;;;1.10;1.10;;;5.70;99.90;;;;;;4985687;28;20357;-67
2023/01/29 10:32:14;;;;;;;2.65;1.42;;;5.70;99.90;;;;;;4968887;28;20050;-69
2023/01/29 10:34:46;;;;;;;0.75;0.75;;;5.70;99.90;;;;;;4973277;28;20622;-68
2023/01/29 10:37:18;;;;;;;0.55;0.55;;;5.70;99.90;;;;;;4989158;28;20050;-67
2023/01/29 10:39:44;;;;;;;0.65;0.65;;;5.70;99.90;;;;;;4988036;28;20109;-67
2023/01/29 10:42:32;;;;;;;0.90;0.90;;;5.70;99.90;;;;;;4971608;28;20650;-66
2023/01/29 10:45:13;;;;;;;0.20;0.20;;;5.70;99.90;;;;;;4987745;28;20125;-67
2023/01/29 10:47:46;;;;;;;0.13;0.13;;;5.70;99.90;;;;;;4987993;28;20041;-67
2023/01/29 10:50:17;;;;;;;3.10;1.10;;;5.70;99.90;;;;;;4988356;28;20058;-67
2023/01/29 10:52:58;;;;;;;0.43;0.43;;;5.70;99.90;;;;;;4970183;28;20409;-67
2023/01/29 10:55:53;;;;;;;0.43;0.43;;;5.70;99.90;;;;;;4988511;28;20046;-67
2023/01/29 10:58:30;;;;;;;42.15;2.75;;;5.80;99.90;;;;;;4988430;28;20050;-66
2023/01/29 11:00:56;;;;;;;0.30;0.30;;;5.80;99.90;;;;;;4987867;28;20053;-67
2023/01/29 11:03:28;;;;;;;0.43;0.43;;;5.80;99.90;;;;;;4988474;28;20515;-66
2023/01/29 11:06:19;;;;;;;0.28;0.28;;;5.80;99.90;;;;;;4979441;28;20038;-65
2023/01/29 11:09:01;;;;;;;0.10;0.10;;;5.90;99.90;;;;;;4987972;28;20545;-67
2023/01/29 11:11:48;;;;;;;0.30;0.30;;;5.90;99.90;;;;;;4988397;28;20498;-67
2023/01/29 11:14:24;;;;;;;0.77;0.77;;;5.90;99.90;;;;;;4983803;28;20364;-67
2023/01/29 11:16:50;;;;;;;2.15;2.05;;;5.90;99.90;;;;;;4987998;28;20177;-66
2023/01/29 11:19:16;;;;;;;2.40;1.42;;;5.90;99.90;;;;;;4987572;28;20486;-67
2023/01/29 11:21:58;;;;;;;0.63;0.63;;;6.00;99.90;;;;;;4987734;28;20401;-67
2023/01/29 11:24:25;;;;;;;1.60;0.85;;;6.00;99.90;;;;;;4971185;28;20046;-66
2023/01/29 11:26:53;;;;;;;0.32;0.32;;;6.00;99.90;;;;;;4987438;28;20039;-66
2023/01/29 11:29:40;;;;;;;0.60;0.60;;;6.00;99.90;;;;;;4976119;28;20648;-66
2023/01/29 11:32:23;;;;;;;0.80;0.80;;;6.00;99.90;;;;;;4982177;28;20034;-68
2023/01/29 11:35:15;;;;;;;0.60;0.60;;;6.00;99.90;;;;;;4969846;28;20100;-67
2023/01/29 11:37:43;;;;;;;0.52;0.52;;;6.00;99.90;;;;;;4985702;28;20949;-66
2023/01/29 11:40:17;;;;;;;0.20;0.20;;;6.10;99.90;;;;;;4986975;28;20057;-67
2023/01/29 11:42:47;;;;;;;0.13;0.13;;;6.10;99.90;;;;;;4988396;28;20057;-66
2023/01/29 11:45:19;;;;;;;0.20;0.20;;;6.10;99.90;;;;;;4987586;28;20050;-67
2023/01/29 11:47:49;;;;;;;0.20;0.20;;;6.10;99.90;;;;;;4986922;28;20050;-67
2023/01/29 11:50:22;;;;;;;0.30;0.30;;;6.10;99.90;;;;;;4983797;28;20043;-67
2023/01/29 11:52:47;;;;;;;1.08;0.80;;;6.20;99.90;;;;;;4987931;28;20394;-66
2023/01/29 11:55:18;;;;;;;0.10;0.10;;;6.20;99.90;;;;;;4987260;28;20057;-66
2023/01/29 11:58:11;;;;;;;0.20;0.20;;;6.20;99.90;;;;;;4987569;28;20046;-67
2023/01/29 12:00:40;;;;;;;0.20;0.20;;;6.20;99.90;;;;;;4986539;28;20070;-66
2023/01/29 12:03:17;;;;;;;0.30;0.30;;;6.20;99.90;;;;;;4988014;28;20058;-67
2023/01/29 12:05:54;;;;;;;0.20;0.20;;;6.20;99.90;;;;;;4986921;28;20061;-67
2023/01/29 12:08:22;;;;;;;0.93;0.90;;;6.20;99.90;;;;;;4986902;28;20088;-67
2023/01/29 12:10:48;;;;;;;1.88;1.75;;;6.20;99.90;;;;;;4988857;28;20517;-67
2023/01/29 12:13:19;;;;;;;0.63;0.63;;;6.20;99.90;;;;;;4988502;28;20470;-68
2023/01/29 12:15:46;;;;;;;1.08;1.02;;;6.30;99.90;;;;;;4985879;28;20533;-66
2023/01/29 12:18:22;;;;;;;0.57;0.57;;;6.20;99.90;;;;;;4988297;28;20390;-67
2023/01/29 12:21:01;;;;;;;1.35;1.30;;;6.30;99.90;;;;;;4969485;28;20481;-67
2023/01/29 12:23:53;;;;;;;0.10;0.10;;;6.20;99.90;;;;;;4986771;28;20489;-67
2023/01/29 12:26:38;;;;;;;0.30;0.30;;;6.20;99.90;;;;;;4987033;28;20054;-67
2023/01/29 12:29:27;;;;;;;0.28;0.28;;;6.20;99.90;;;;;;4987027;28;20437;-67
2023/01/29 12:32:15;;;;;;;0.10;0.10;;;6.20;99.90;;;;;;4985812;28;20049;-67
2023/01/29 12:35:05;;;;;;;0.28;0.28;;;6.20;99.90;;;;;;4983909;28;20082;-68
2023/01/29 12:38:15;;;;;;;0.10;0.10;;;6.20;99.90;;;;;;4988474;28;20046;-67
2023/01/29 12:41:23;;;;;;;0.10;0.10;;;6.20;99.90;;;;;;4985291;28;20070;-67
2023/01/29 12:43:54;;;;;;;0.63;0.63;;;6.20;99.90;;;;;;4968743;28;20133;-68
2023/01/29 12:46:29;;;;;;;0.10;0.10;;;6.20;99.90;;;;;;4986012;28;20046;-68
2023/01/29 12:49:00;;;;;;;1.05;1.05;;;6.30;99.90;;;;;;4970096;28;20393;-68
2023/01/29 12:51:34;;;;;;;0.55;0.55;;;6.30;99.90;;;;;;4969011;28;20058;-68
2023/01/29 12:54:04;;;;;;;0.20;0.17;;;6.30;99.90;;;;;;4990167;28;20046;-68
2023/01/29 12:56:44;;;;;;;0.65;0.65;;;6.30;99.90;;;;;;4989898;28;20101;-68
2023/01/29 12:59:23;;;;;;;1.38;0.93;;;6.30;99.90;;;;;;4986560;28;20144;-66
2023/01/29 13:01:54;;;;;;;0.10;0.10;;;6.40;99.90;;;;;;4988372;28;20086;-66
2023/01/29 13:04:44;;;;;;;0.10;0.10;;;6.40;99.90;;;;;;4990146;28;20058;-66
2023/01/29 13:07:22;;;;;;;0.10;0.10;;;6.40;99.90;;;;;;4990872;28;20045;-66
2023/01/29 13:09:55;;;;;;;0.15;0.15;;;6.40;99.90;;;;;;4972616;28;20046;-66
2023/01/29 13:12:23;;;;;;;0.10;0.10;;;6.40;99.90;;;;;;4989923;28;20062;-66
2023/01/29 13:15:36;;;;;;;0.95;0.30;;;6.50;99.90;;;;;;4970656;28;20078;-67
2023/01/29 13:18:35;;;;;;;0.10;0.10;;;6.50;99.90;;;;;;4972324;28;20065;-67
2023/01/29 13:21:05;;;;;;;0.30;0.30;;;6.60;99.90;;;;;;4972697;28;20116;-67
2023/01/29 13:23:41;;;;;;;0.10;0.10;;;6.60;99.90;;;;;;4990526;28;20046;-66
2023/01/29 13:26:07;;;;;;;0.10;0.10;;;6.60;99.90;;;;;;4989522;28;20050;-68
2023/01/29 13:28:35;;;;;;;0.00;0.00;;;6.60;99.90;;;;;;4989861;28;20050;-67
2023/01/29 13:31:25;;;;;;;0.10;0.10;;;6.60;99.90;;;;;;4988641;28;20391;-66
2023/01/29 13:34:15;;;;;;;0.20;0.20;;;6.60;99.90;;;;;;4988189;28;20050;-66
2023/01/29 13:36:47;;;;;;;0.15;0.15;;;6.60;99.90;;;;;;4980052;28;20042;-67
2023/01/29 13:39:43;;;;;;;0.00;0.00;;;6.60;99.90;;;;;;4985426;28;20046;-66
2023/01/29 13:42:29;;;;;;;0.10;0.10;;;6.60;99.90;;;;;;4990651;28;20125;-66
2023/01/29 13:44:59;;;;;;;0.10;0.10;;;6.60;99.90;;;;;;4988566;28;20048;-66
2023/01/29 13:47:26;;;;;;;0.10;0.10;;;6.60;99.90;;;;;;4989926;28;20049;-66
2023/01/29 13:49:58;;;;;;;0.10;0.10;;;6.60;99.90;;;;;;4988381;28;20042;-66
2023/01/29 13:53:05;;;;;;;0.10;0.10;;;6.50;99.90;;;;;;4985815;28;20062;-65
2023/01/29 13:55:36;;;;;;;0.10;0.10;;;6.50;99.90;;;;;;4944891;28;20073;-66
2023/01/29 13:58:07;;;;;;;0.10;0.10;;;6.50;99.90;;;;;;4970075;28;20039;-66